sensor_id;sensor_type;location;lat;lon;timestamp;pressure;altitude;pressure_sealevel;temperature;humidity
20424;BME280;10371;49.042;8.002;2023-05-17T00:00:29;100374.38;;;8.07;85.33
20424;BME280;10371;49.042;8.002;2023-05-17T00:01:30;100377.97;;;8.04;85.36
20424;BME280;10371;49.042;8.002;2023-05-17T00:02:30;100366.53;;;7.94;85.75
20424;BME280;10371;49.042;8.002;2023-05-17T00:03:30;100378.34;;;7.98;86.10
20424;BME280;10371;49.042;8.002;2023-05-17T00:04:30;100379.28;;;7.97;86.46
20424;BME280;10371;49.042;8.002;2023-05-17T00:05:32;100382.25;;;7.91;86.96
20424;BME280;10371;49.042;8.002;2023-05-17T00:06:32;100380.78;;;7.87;87.07
20424;BME280;10371;49.042;8.002;2023-05-17T00:07:33;100378.38;;;7.84;87.29
20424;BME280;10371;49.042;8.002;2023-05-17T00:08:34;100386.88;;;7.86;87.38
20424;BME280;10371;49.042;8.002;2023-05-17T00:09:34;100381.97;;;7.81;87.52
20424;BME280;10371;49.042;8.002;2023-05-17T00:10:35;100390.56;;;7.82;87.76
20424;BME280;10371;49.042;8.002;2023-05-17T00:11:35;100387.97;;;7.82;87.73
20424;BME280;10371;49.042;8.002;2023-05-17T00:12:35;100389.75;;;7.81;88.15
20424;BME280;10371;49.042;8.002;2023-05-17T00:13:36;100373.06;;;7.71;88.29
20424;BME280;10371;49.042;8.002;2023-05-17T00:14:37;100381.41;;;7.76;88.24
20424;BME280;10371;49.042;8.002;2023-05-17T00:15:37;100379.56;;;7.78;88.06
20424;BME280;10371;49.042;8.002;2023-05-17T00:16:37;100378.63;;;7.79;88.31
20424;BME280;10371;49.042;8.002;2023-05-17T00:17:37;100380.41;;;7.79;88.25
20424;BME280;10371;49.042;8.002;2023-05-17T00:18:38;100373.56;;;7.78;88.07
20424;BME280;10371;49.042;8.002;2023-05-17T00:19:38;100382.25;;;7.77;88.35
20424;BME280;10371;49.042;8.002;2023-05-17T00:20:38;100373.81;;;7.73;88.35
20424;BME280;10371;49.042;8.002;2023-05-17T00:21:38;100372.25;;;7.71;88.57
20424;BME280;10371;49.042;8.002;2023-05-17T00:22:39;100372.16;;;7.72;88.57
20424;BME280;10371;49.042;8.002;2023-05-17T00:23:40;100375.78;;;7.70;88.79
20424;BME280;10371;49.042;8.002;2023-05-17T00:24:40;100376.53;;;7.72;88.80
20424;BME280;10371;49.042;8.002;2023-05-17T00:25:40;100374.19;;;7.67;88.94
20424;BME280;10371;49.042;8.002;2023-05-17T00:26:40;100382.78;;;7.68;89.22
20424;BME280;10371;49.042;8.002;2023-05-17T00:27:41;100376.03;;;7.65;89.20
20424;BME280;10371;49.042;8.002;2023-05-17T00:28:41;100377.88;;;7.63;89.28
20424;BME280;10371;49.042;8.002;2023-05-17T00:29:41;100376.31;;;7.60;89.26
20424;BME280;10371;49.042;8.002;2023-05-17T00:30:42;100376.31;;;7.60;89.46
20424;BME280;10371;49.042;8.002;2023-05-17T00:31:42;100377.22;;;7.59;89.51
20424;BME280;10371;49.042;8.002;2023-05-17T00:32:42;100377.06;;;7.63;89.63
20424;BME280;10371;49.042;8.002;2023-05-17T00:33:44;100379.63;;;7.63;89.55
20424;BME280;10371;49.042;8.002;2023-05-17T00:34:46;100372.81;;;7.61;89.40
20424;BME280;10371;49.042;8.002;2023-05-17T00:35:46;100386.50;;;7.64;89.59
20424;BME280;10371;49.042;8.002;2023-05-17T00:36:47;100374.47;;;7.63;89.54
20424;BME280;10371;49.042;8.002;2023-05-17T00:37:47;100376.47;;;7.57;89.65
20424;BME280;10371;49.042;8.002;2023-05-17T00:38:47;100379.19;;;7.56;90.04
20424;BME280;10371;49.042;8.002;2023-05-17T00:39:48;100390.38;;;7.56;90.19
20424;BME280;10371;49.042;8.002;2023-05-17T00:40:49;100388.72;;;7.55;90.20
20424;BME280;10371;49.042;8.002;2023-05-17T00:41:49;100387.03;;;7.54;90.35
20424;BME280;10371;49.042;8.002;2023-05-17T00:42:49;100382.59;;;7.56;90.22
20424;BME280;10371;49.042;8.002;2023-05-17T00:43:50;100389.63;;;7.54;90.28
20424;BME280;10371;49.042;8.002;2023-05-17T00:44:50;100383.88;;;7.49;90.47
20424;BME280;10371;49.042;8.002;2023-05-17T00:45:51;100386.38;;;7.51;90.85
20424;BME280;10371;49.042;8.002;2023-05-17T00:46:51;100387.59;;;7.45;90.66
20424;BME280;10371;49.042;8.002;2023-05-17T00:47:51;100384.25;;;7.43;91.12
20424;BME280;10371;49.042;8.002;2023-05-17T00:48:52;100388.59;;;7.43;91.00
20424;BME280;10371;49.042;8.002;2023-05-17T00:49:52;100391.09;;;7.44;91.29
20424;BME280;10371;49.042;8.002;2023-05-17T00:50:54;100390.16;;;7.45;91.29
20424;BME280;10371;49.042;8.002;2023-05-17T00:51:54;100390.34;;;7.42;91.40
20424;BME280;10371;49.042;8.002;2023-05-17T00:52:55;100394.72;;;7.42;91.70
20424;BME280;10371;49.042;8.002;2023-05-17T00:53:55;100382.94;;;7.36;91.77
20424;BME280;10371;49.042;8.002;2023-05-17T00:54:56;100396.28;;;7.44;91.91
20424;BME280;10371;49.042;8.002;2023-05-17T00:55:56;100386.09;;;7.41;91.91
20424;BME280;10371;49.042;8.002;2023-05-17T00:56:58;100391.75;;;7.48;91.59
20424;BME280;10371;49.042;8.002;2023-05-17T00:57:59;100395.16;;;7.48;91.57
20424;BME280;10371;49.042;8.002;2023-05-17T00:59:01;100390.91;;;7.47;91.68
20424;BME280;10371;49.042;8.002;2023-05-17T01:00:03;100393.16;;;7.53;91.37
20424;BME280;10371;49.042;8.002;2023-05-17T01:01:03;100384.56;;;7.53;91.11
20424;BME280;10371;49.042;8.002;2023-05-17T01:02:04;100389.72;;;7.53;91.13
20424;BME280;10371;49.042;8.002;2023-05-17T01:03:05;100393.03;;;7.55;91.05
20424;BME280;10371;49.042;8.002;2023-05-17T01:04:05;100388.78;;;7.54;91.19
20424;BME280;10371;49.042;8.002;2023-05-17T01:05:06;100387.22;;;7.51;91.22
20424;BME280;10371;49.042;8.002;2023-05-17T01:06:06;100389.72;;;7.53;90.93
20424;BME280;10371;49.042;8.002;2023-05-17T01:07:07;100385.13;;;7.58;90.46
20424;BME280;10371;49.042;8.002;2023-05-17T01:08:08;100383.53;;;7.55;90.29
20424;BME280;10371;49.042;8.002;2023-05-17T01:09:09;100395.19;;;7.63;90.43
20424;BME280;10371;49.042;8.002;2023-05-17T01:10:09;100388.34;;;7.61;90.13
20424;BME280;10371;49.042;8.002;2023-05-17T01:11:34;100390.94;;;7.61;90.20
20424;BME280;10371;49.042;8.002;2023-05-17T01:15:27;100389.53;;;7.56;90.42
20424;BME280;10371;49.042;8.002;2023-05-17T01:16:35;100391.50;;;7.52;90.41
20424;BME280;10371;49.042;8.002;2023-05-17T01:18:58;100397.41;;;7.54;90.48
20424;BME280;10371;49.042;8.002;2023-05-17T01:20:13;100401.69;;;7.55;90.24
20424;BME280;10371;49.042;8.002;2023-05-17T01:21:43;100403.31;;;7.56;90.25
20424;BME280;10371;49.042;8.002;2023-05-17T01:24:29;100404.25;;;7.55;90.67
20424;BME280;10371;49.042;8.002;2023-05-17T01:26:46;100408.88;;;7.50;90.87
20424;BME280;10371;49.042;8.002;2023-05-17T01:27:48;100408.94;;;7.49;90.98
20424;BME280;10371;49.042;8.002;2023-05-17T01:28:52;100410.34;;;7.54;91.01
20424;BME280;10371;49.042;8.002;2023-05-17T01:29:55;100412.28;;;7.51;90.71
20424;BME280;10371;49.042;8.002;2023-05-17T01:30:57;100407.94;;;7.51;90.66
20424;BME280;10371;49.042;8.002;2023-05-17T01:32:02;100409.53;;;7.54;90.78
20424;BME280;10371;49.042;8.002;2023-05-17T01:33:03;100413.31;;;7.48;90.98
20424;BME280;10371;49.042;8.002;2023-05-17T01:34:09;100414.25;;;7.47;90.78
20424;BME280;10371;49.042;8.002;2023-05-17T01:35:10;100416.16;;;7.44;91.24
20424;BME280;10371;49.042;8.002;2023-05-17T01:36:11;100419.03;;;7.39;91.29
20424;BME280;10371;49.042;8.002;2023-05-17T01:37:11;100415.69;;;7.37;91.63
20424;BME280;10371;49.042;8.002;2023-05-17T01:38:11;100414.94;;;7.35;91.75
20424;BME280;10371;49.042;8.002;2023-05-17T01:39:12;100417.53;;;7.35;92.01
20424;BME280;10371;49.042;8.002;2023-05-17T01:40:12;100419.28;;;7.34;92.04
20424;BME280;10371;49.042;8.002;2023-05-17T01:42:31;100415.88;;;7.34;92.15
20424;BME280;10371;49.042;8.002;2023-05-17T01:43:55;100405.50;;;7.34;92.07
20424;BME280;10371;49.042;8.002;2023-05-17T01:45:05;100419.78;;;7.41;91.92
20424;BME280;10371;49.042;8.002;2023-05-17T01:46:12;100416.25;;;7.42;92.04
20424;BME280;10371;49.042;8.002;2023-05-17T01:47:41;100425.13;;;7.38;91.88
20424;BME280;10371;49.042;8.002;2023-05-17T01:48:39;100425.22;;;7.36;92.43
20424;BME280;10371;49.042;8.002;2023-05-17T01:49:46;100422.88;;;7.32;92.75
20424;BME280;10371;49.042;8.002;2023-05-17T01:50:49;100417.88;;;7.29;92.85
20424;BME280;10371;49.042;8.002;2023-05-17T01:52:02;100418.06;;;7.26;93.04
20424;BME280;10371;49.042;8.002;2023-05-17T01:53:07;100425.06;;;7.24;93.37
20424;BME280;10371;49.042;8.002;2023-05-17T01:54:09;100421.00;;;7.20;93.85
20424;BME280;10371;49.042;8.002;2023-05-17T01:55:37;100430.59;;;7.18;94.14
20424;BME280;10371;49.042;8.002;2023-05-17T01:56:42;100423.94;;;7.13;94.46
20424;BME280;10371;49.042;8.002;2023-05-17T01:57:44;100429.19;;;7.12;94.99
20424;BME280;10371;49.042;8.002;2023-05-17T01:58:47;100420.97;;;7.05;95.19
20424;BME280;10371;49.042;8.002;2023-05-17T01:59:48;100432.03;;;7.07;95.21
20424;BME280;10371;49.042;8.002;2023-05-17T02:00:51;100432.13;;;7.06;95.72
20424;BME280;10371;49.042;8.002;2023-05-17T02:01:56;100431.31;;;7.05;95.66
20424;BME280;10371;49.042;8.002;2023-05-17T02:02:57;100433.16;;;7.03;95.84
20424;BME280;10371;49.042;8.002;2023-05-17T02:03:57;100434.97;;;7.01;96.05
20424;BME280;10371;49.042;8.002;2023-05-17T02:04:58;100438.66;;;6.97;95.93
20424;BME280;10371;49.042;8.002;2023-05-17T02:05:58;100430.06;;;6.97;96.28
20424;BME280;10371;49.042;8.002;2023-05-17T02:06:58;100425.16;;;6.92;96.62
20424;BME280;10371;49.042;8.002;2023-05-17T02:07:58;100436.16;;;6.96;96.72
20424;BME280;10371;49.042;8.002;2023-05-17T02:08:59;100432.81;;;6.93;97.13
20424;BME280;10371;49.042;8.002;2023-05-17T02:10:01;100432.97;;;6.90;97.50
20424;BME280;10371;49.042;8.002;2023-05-17T02:11:02;100442.34;;;6.93;97.37
20424;BME280;10371;49.042;8.002;2023-05-17T02:12:03;100439.03;;;6.91;97.88
20424;BME280;10371;49.042;8.002;2023-05-17T02:13:03;100437.31;;;6.90;98.04
20424;BME280;10371;49.042;8.002;2023-05-17T02:14:04;100437.50;;;6.87;98.17
20424;BME280;10371;49.042;8.002;2023-05-17T02:15:04;100444.34;;;6.88;98.03
20424;BME280;10371;49.042;8.002;2023-05-17T02:16:06;100440.03;;;6.88;98.22
20424;BME280;10371;49.042;8.002;2023-05-17T02:17:06;100437.50;;;6.87;98.17
20424;BME280;10371;49.042;8.002;2023-05-17T02:18:07;100434.84;;;6.88;98.17
20424;BME280;10371;49.042;8.002;2023-05-17T02:19:07;100433.97;;;6.88;98.03
20424;BME280;10371;49.042;8.002;2023-05-17T02:20:08;100444.19;;;6.91;97.94
20424;BME280;10371;49.042;8.002;2023-05-17T02:21:09;100442.34;;;6.93;97.99
20424;BME280;10371;49.042;8.002;2023-05-17T02:22:11;100436.97;;;6.96;98.01
20424;BME280;10371;49.042;8.002;2023-05-17T02:23:11;100441.97;;;6.99;98.03
20424;BME280;10371;49.042;8.002;2023-05-17T02:24:11;100435.91;;;7.00;97.86
20424;BME280;10371;49.042;8.002;2023-05-17T02:25:11;100441.75;;;7.04;97.59
20424;BME280;10371;49.042;8.002;2023-05-17T02:26:11;100429.78;;;7.01;97.36
20424;BME280;10371;49.042;8.002;2023-05-17T02:27:12;100441.66;;;7.05;97.34
20424;BME280;10371;49.042;8.002;2023-05-17T02:28:12;100438.97;;;7.07;97.56
20424;BME280;10371;49.042;8.002;2023-05-17T02:29:12;100437.31;;;7.06;97.65
20424;BME280;10371;49.042;8.002;2023-05-17T02:30:13;100435.56;;;7.06;97.78
20424;BME280;10371;49.042;8.002;2023-05-17T02:31:16;100434.81;;;7.04;97.56
20424;BME280;10371;49.042;8.002;2023-05-17T02:32:16;100443.31;;;7.06;97.45
20424;BME280;10371;49.042;8.002;2023-05-17T02:33:16;100439.81;;;7.07;97.68
20424;BME280;10371;49.042;8.002;2023-05-17T02:34:16;100438.06;;;7.08;97.33
20424;BME280;10371;49.042;8.002;2023-05-17T02:35:17;100438.91;;;7.08;97.88
20424;BME280;10371;49.042;8.002;2023-05-17T02:36:17;100439.81;;;7.07;97.89
20424;BME280;10371;49.042;8.002;2023-05-17T02:37:17;100444.72;;;7.12;97.95
20424;BME280;10371;49.042;8.002;2023-05-17T02:38:17;100443.16;;;7.09;98.11
20424;BME280;10371;49.042;8.002;2023-05-17T02:39:18;100436.50;;;7.05;97.92
20424;BME280;10371;49.042;8.002;2023-05-17T02:40:18;100445.97;;;7.05;98.33
20424;BME280;10371;49.042;8.002;2023-05-17T02:41:18;100445.09;;;7.06;98.27
20424;BME280;10371;49.042;8.002;2023-05-17T02:42:18;100441.66;;;7.05;98.76
20424;BME280;10371;49.042;8.002;2023-05-17T02:43:19;100434.63;;;7.07;98.45
20424;BME280;10371;49.042;8.002;2023-05-17T02:44:19;100442.38;;;7.07;98.66
20424;BME280;10371;49.042;8.002;2023-05-17T02:45:20;100444.09;;;7.08;98.43
20424;BME280;10371;49.042;8.002;2023-05-17T02:46:20;100445.84;;;7.08;98.33
20424;BME280;10371;49.042;8.002;2023-05-17T02:47:20;100443.16;;;7.09;98.63
20424;BME280;10371;49.042;8.002;2023-05-17T02:48:21;100447.50;;;7.09;98.52
20424;BME280;10371;49.042;8.002;2023-05-17T02:49:21;100446.66;;;7.08;98.34
20424;BME280;10371;49.042;8.002;2023-05-17T02:50:21;100445.09;;;7.06;98.58
20424;BME280;10371;49.042;8.002;2023-05-17T02:51:21;100446.66;;;7.08;98.61
20424;BME280;10371;49.042;8.002;2023-05-17T02:52:22;100449.25;;;7.08;98.70
20424;BME280;10371;49.042;8.002;2023-05-17T02:53:22;100449.16;;;7.10;98.58
20424;BME280;10371;49.042;8.002;2023-05-17T02:54:22;100445.56;;;7.12;98.39
20424;BME280;10371;49.042;8.002;2023-05-17T02:55:22;100446.50;;;7.11;98.15
20424;BME280;10371;49.042;8.002;2023-05-17T02:56:23;100445.50;;;7.14;98.26
20424;BME280;10371;49.042;8.002;2023-05-17T02:57:23;100443.72;;;7.14;97.80
20424;BME280;10371;49.042;8.002;2023-05-17T02:58:24;100449.66;;;7.16;97.67
20424;BME280;10371;49.042;8.002;2023-05-17T02:59:24;100443.47;;;7.19;97.47
20424;BME280;10371;49.042;8.002;2023-05-17T03:00:25;100451.16;;;7.21;97.48
20424;BME280;10371;49.042;8.002;2023-05-17T03:01:26;100441.72;;;7.20;97.06
20424;BME280;10371;49.042;8.002;2023-05-17T03:02:26;100446.78;;;7.21;96.99
20424;BME280;10371;49.042;8.002;2023-05-17T03:03:26;100446.91;;;7.20;96.92
20424;BME280;10371;49.042;8.002;2023-05-17T03:04:26;100443.38;;;7.21;96.68
20424;BME280;10371;49.042;8.002;2023-05-17T03:05:27;100449.50;;;7.20;96.58
20424;BME280;10371;49.042;8.002;2023-05-17T03:06:27;100451.97;;;7.21;96.47
20424;BME280;10371;49.042;8.002;2023-05-17T03:07:27;100445.13;;;7.20;96.69
20424;BME280;10371;49.042;8.002;2023-05-17T03:08:28;100459.03;;;7.19;96.62
20424;BME280;10371;49.042;8.002;2023-05-17T03:09:28;100444.50;;;7.16;96.91
20424;BME280;10371;49.042;8.002;2023-05-17T03:10:31;100454.66;;;7.20;96.88
20424;BME280;10371;49.042;8.002;2023-05-17T03:11:31;100450.31;;;7.20;97.15
20424;BME280;10371;49.042;8.002;2023-05-17T03:12:32;100454.66;;;7.20;97.14
20424;BME280;10371;49.042;8.002;2023-05-17T03:13:32;100452.25;;;7.16;97.16
20424;BME280;10371;49.042;8.002;2023-05-17T03:14:32;100453.84;;;7.19;97.43
20424;BME280;10371;49.042;8.002;2023-05-17T03:15:32;100453.66;;;7.22;97.54
20424;BME280;10371;49.042;8.002;2023-05-17T03:16:33;100459.09;;;7.18;97.50
20424;BME280;10371;49.042;8.002;2023-05-17T03:17:33;100456.69;;;7.14;97.67
20424;BME280;10371;49.042;8.002;2023-05-17T03:18:33;100460.28;;;7.12;98.00
20424;BME280;10371;49.042;8.002;2023-05-17T03:19:34;100458.69;;;7.09;97.95
20424;BME280;10371;49.042;8.002;2023-05-17T03:20:34;100458.03;;;7.06;98.28
20424;BME280;10371;49.042;8.002;2023-05-17T03:21:34;100466.38;;;7.11;98.17
20424;BME280;10371;49.042;8.002;2023-05-17T03:22:34;100463.09;;;7.07;98.11
20424;BME280;10371;49.042;8.002;2023-05-17T03:23:35;100465.69;;;7.07;98.85
20424;BME280;10371;49.042;8.002;2023-05-17T03:24:35;100464.97;;;7.05;98.53
20424;BME280;10371;49.042;8.002;2023-05-17T03:25:35;100465.03;;;7.04;98.73
20424;BME280;10371;49.042;8.002;2023-05-17T03:26:36;100468.47;;;7.04;99.08
20424;BME280;10371;49.042;8.002;2023-05-17T03:27:36;100470.22;;;7.04;99.04
20424;BME280;10371;49.042;8.002;2023-05-17T03:28:36;100467.72;;;7.02;99.21
20424;BME280;10371;49.042;8.002;2023-05-17T03:29:37;100471.97;;;7.03;98.70
20424;BME280;10371;49.042;8.002;2023-05-17T03:30:37;100463.38;;;7.03;98.94
20424;BME280;10371;49.042;8.002;2023-05-17T03:31:37;100463.22;;;7.06;98.82
20424;BME280;10371;49.042;8.002;2023-05-17T03:32:38;100470.88;;;7.07;98.85
20424;BME280;10371;49.042;8.002;2023-05-17T03:33:39;100469.97;;;7.08;98.77
20424;BME280;10371;49.042;8.002;2023-05-17T03:34:39;100470.22;;;7.04;98.66
20424;BME280;10371;49.042;8.002;2023-05-17T03:35:39;100476.22;;;7.04;98.41
20424;BME280;10371;49.042;8.002;2023-05-17T03:36:40;100473.56;;;7.06;98.69
20424;BME280;10371;49.042;8.002;2023-05-17T03:37:40;100469.22;;;7.06;98.67
20424;BME280;10371;49.042;8.002;2023-05-17T03:38:40;100472.03;;;7.02;98.72
20424;BME280;10371;49.042;8.002;2023-05-17T03:39:40;100472.81;;;7.04;99.17
20424;BME280;10371;49.042;8.002;2023-05-17T03:40:41;100474.56;;;7.03;98.66
20424;BME280;10371;49.042;8.002;2023-05-17T03:41:41;100476.50;;;7.00;98.98
20424;BME280;10371;49.042;8.002;2023-05-17T03:42:41;100484.09;;;7.03;99.34
20424;BME280;10371;49.042;8.002;2023-05-17T03:43:41;100482.41;;;7.02;99.25
20424;BME280;10371;49.042;8.002;2023-05-17T03:44:42;100471.22;;;7.01;99.34
20424;BME280;10371;49.042;8.002;2023-05-17T03:45:42;100480.81;;;6.99;99.37
20424;BME280;10371;49.042;8.002;2023-05-17T03:46:42;100471.22;;;7.01;99.49
20424;BME280;10371;49.042;8.002;2023-05-17T03:47:43;100475.56;;;7.01;99.54
20424;BME280;10371;49.042;8.002;2023-05-17T03:48:43;100476.56;;;6.98;99.55
20424;BME280;10371;49.042;8.002;2023-05-17T03:49:43;100474.91;;;6.97;99.59
20424;BME280;10371;49.042;8.002;2023-05-17T03:50:43;100474.09;;;6.97;99.42
20424;BME280;10371;49.042;8.002;2023-05-17T03:51:44;100461.38;;;6.92;99.77
20424;BME280;10371;49.042;8.002;2023-05-17T03:52:44;100474.22;;;6.93;99.64
20424;BME280;10371;49.042;8.002;2023-05-17T03:53:45;100479.41;;;6.93;99.95
20424;BME280;10371;49.042;8.002;2023-05-17T03:54:45;100474.50;;;6.89;100.00
20424;BME280;10371;49.042;8.002;2023-05-17T03:55:45;100482.34;;;6.87;100.00
20424;BME280;10371;49.042;8.002;2023-05-17T03:56:46;100472.16;;;6.84;100.00
20424;BME280;10371;49.042;8.002;2023-05-17T03:57:48;100479.84;;;6.86;100.00
20424;BME280;10371;49.042;8.002;2023-05-17T03:58:48;100485.91;;;6.85;100.00
20424;BME280;10371;49.042;8.002;2023-05-17T03:59:49;100483.34;;;6.85;100.00
20424;BME280;10371;49.042;8.002;2023-05-17T04:00:49;100489.38;;;6.85;100.00
20424;BME280;10371;49.042;8.002;2023-05-17T04:01:49;100487.59;;;6.86;100.00
20424;BME280;10371;49.042;8.002;2023-05-17T04:02:50;100485.91;;;6.85;100.00
20424;BME280;10371;49.042;8.002;2023-05-17T04:03:51;100486.78;;;6.85;100.00
20424;BME280;10371;49.042;8.002;2023-05-17T04:04:51;100477.31;;;6.84;100.00
20424;BME280;10371;49.042;8.002;2023-05-17T04:05:52;100484.31;;;6.82;100.00
20424;BME280;10371;49.042;8.002;2023-05-17T04:06:52;100485.19;;;6.83;100.00
20424;BME280;10371;49.042;8.002;2023-05-17T04:07:52;100485.19;;;6.83;100.00
20424;BME280;10371;49.042;8.002;2023-05-17T04:08:53;100483.16;;;6.88;100.00
20424;BME280;10371;49.042;8.002;2023-05-17T04:09:55;100485.59;;;6.91;100.00
20424;BME280;10371;49.042;8.002;2023-05-17T04:10:58;100487.09;;;6.95;100.00
20424;BME280;10371;49.042;8.002;2023-05-17T04:11:58;100491.28;;;6.98;100.00
20424;BME280;10371;49.042;8.002;2023-05-17T04:12:59;100498.09;;;6.99;100.00
20424;BME280;10371;49.042;8.002;2023-05-17T04:13:59;100500.28;;;7.06;100.00
20424;BME280;10371;49.042;8.002;2023-05-17T04:14:59;100498.44;;;7.08;100.00
20424;BME280;10371;49.042;8.002;2023-05-17T04:16:00;100494.94;;;7.09;99.99
20424;BME280;10371;49.042;8.002;2023-05-17T04:17:01;100494.09;;;7.09;99.62
20424;BME280;10371;49.042;8.002;2023-05-17T04:18:01;100502.53;;;7.12;99.65
20424;BME280;10371;49.042;8.002;2023-05-17T04:19:01;100501.63;;;7.13;99.39
20424;BME280;10371;49.042;8.002;2023-05-17T04:20:03;100503.09;;;7.18;99.06
20424;BME280;10371;49.042;8.002;2023-05-17T04:21:05;100501.28;;;7.20;99.26
20424;BME280;10371;49.042;8.002;2023-05-17T04:22:06;100504.63;;;7.22;99.27
20424;BME280;10371;49.042;8.002;2023-05-17T04:23:06;100506.13;;;7.26;99.11
20424;BME280;10371;49.042;8.002;2023-05-17T04:24:06;100510.19;;;7.30;98.79
20424;BME280;10371;49.042;8.002;2023-05-17T04:25:07;100509.09;;;7.34;98.53
20424;BME280;10371;49.042;8.002;2023-05-17T04:26:08;100509.09;;;7.34;98.40
20424;BME280;10371;49.042;8.002;2023-05-17T04:27:08;100513.34;;;7.35;98.34
20424;BME280;10371;49.042;8.002;2023-05-17T04:28:09;100503.03;;;7.49;98.26
20424;BME280;10371;49.042;8.002;2023-05-17T04:29:10;100517.34;;;7.56;98.19
20424;BME280;10371;49.042;8.002;2023-05-17T04:30:11;100513.75;;;7.59;98.25
20424;BME280;10371;49.042;8.002;2023-05-17T04:31:14;100516.06;;;7.64;98.41
20424;BME280;10371;49.042;8.002;2023-05-17T04:32:16;100520.25;;;7.66;98.50
20424;BME280;10371;49.042;8.002;2023-05-17T04:33:17;100523.69;;;7.67;98.53
20424;BME280;10371;49.042;8.002;2023-05-17T04:34:17;100518.31;;;7.70;98.53
20424;BME280;10371;49.042;8.002;2023-05-17T04:35:17;100521.72;;;7.70;98.59
20424;BME280;10371;49.042;8.002;2023-05-17T04:36:18;100518.03;;;7.74;98.42
20424;BME280;10371;49.042;8.002;2023-05-17T04:37:18;100526.47;;;7.78;98.23
20424;BME280;10371;49.042;8.002;2023-05-17T04:38:19;100526.31;;;7.81;98.21
20424;BME280;10371;49.042;8.002;2023-05-17T04:39:19;100528.72;;;7.84;98.02
20424;BME280;10371;49.042;8.002;2023-05-17T04:40:20;100520.00;;;7.85;97.57
20424;BME280;10371;49.042;8.002;2023-05-17T04:41:20;100528.34;;;7.90;97.28
20424;BME280;10371;49.042;8.002;2023-05-17T04:42:20;100518.47;;;7.97;97.09
20424;BME280;10371;49.042;8.002;2023-05-17T04:43:21;100523.47;;;8.00;96.76
20424;BME280;10371;49.042;8.002;2023-05-17T04:44:21;100526.53;;;8.06;96.49
20424;BME280;10371;49.042;8.002;2023-05-17T04:45:21;100532.19;;;8.13;96.22
20424;BME280;10371;49.042;8.002;2023-05-17T04:46:22;100514.88;;;8.14;96.12
20424;BME280;10371;49.042;8.002;2023-05-17T04:47:22;100533.56;;;8.19;95.54
20424;BME280;10371;49.042;8.002;2023-05-17T04:48:23;100527.38;;;8.21;95.30
20424;BME280;10371;49.042;8.002;2023-05-17T04:49:25;100530.06;;;8.20;94.74
20424;BME280;10371;49.042;8.002;2023-05-17T04:50:25;100516.53;;;8.15;94.16
20424;BME280;10371;49.042;8.002;2023-05-17T04:51:26;100536.47;;;8.14;93.65
20424;BME280;10371;49.042;8.002;2023-05-17T04:52:26;100533.56;;;8.19;93.81
20424;BME280;10371;49.042;8.002;2023-05-17T04:53:27;100532.84;;;8.17;93.75
20424;BME280;10371;49.042;8.002;2023-05-17T04:54:27;100532.28;;;8.12;93.61
20424;BME280;10371;49.042;8.002;2023-05-17T04:55:27;100537.47;;;8.12;93.64
20424;BME280;10371;49.042;8.002;2023-05-17T04:56:28;100543.81;;;8.22;93.51
20424;BME280;10371;49.042;8.002;2023-05-17T04:57:28;100539.06;;;8.28;93.37
20424;BME280;10371;49.042;8.002;2023-05-17T04:58:28;100539.72;;;8.32;93.24
20424;BME280;10371;49.042;8.002;2023-05-17T04:59:28;100539.44;;;8.37;93.02
20424;BME280;10371;49.042;8.002;2023-05-17T05:00:29;100542.81;;;8.39;92.77
20424;BME280;10371;49.042;8.002;2023-05-17T05:01:29;100546.28;;;8.38;92.48
20424;BME280;10371;49.042;8.002;2023-05-17T05:02:30;100543.47;;;8.42;92.14
20424;BME280;10371;49.042;8.002;2023-05-17T05:03:30;100545.88;;;8.45;92.07
20424;BME280;10371;49.042;8.002;2023-05-17T05:04:30;100542.53;;;8.43;91.81
20424;BME280;10371;49.042;8.002;2023-05-17T05:05:30;100547.19;;;8.53;91.70
20424;BME280;10371;49.042;8.002;2023-05-17T05:06:31;100551.06;;;8.60;91.61
20424;BME280;10371;49.042;8.002;2023-05-17T05:07:32;100546.44;;;8.65;91.39
20424;BME280;10371;49.042;8.002;2023-05-17T05:08:33;100549.28;;;8.60;91.17
20424;BME280;10371;49.042;8.002;2023-05-17T05:09:33;100553.28;;;8.66;91.27
20424;BME280;10371;49.042;8.002;2023-05-17T05:10:33;100563.13;;;8.75;91.46
20424;BME280;10371;49.042;8.002;2023-05-17T05:11:35;100552.53;;;8.78;91.37
20424;BME280;10371;49.042;8.002;2023-05-17T05:12:36;100558.00;;;8.88;91.33
20424;BME280;10371;49.042;8.002;2023-05-17T05:13:37;100556.69;;;8.95;91.08
20424;BME280;10371;49.042;8.002;2023-05-17T05:14:37;100556.38;;;9.00;91.04
20424;BME280;10371;49.042;8.002;2023-05-17T05:15:38;100563.81;;;9.06;91.14
20424;BME280;10371;49.042;8.002;2023-05-17T05:16:38;100561.75;;;9.11;91.13
20424;BME280;10371;49.042;8.002;2023-05-17T05:17:38;100559.69;;;9.16;90.83
20424;BME280;10371;49.042;8.002;2023-05-17T05:18:39;100561.38;;;9.17;91.10
20424;BME280;10371;49.042;8.002;2023-05-17T05:19:39;100567.50;;;9.16;91.28
20424;BME280;10371;49.042;8.002;2023-05-17T05:20:39;100565.28;;;9.10;91.33
20424;BME280;10371;49.042;8.002;2023-05-17T05:21:39;100569.94;;;9.05;91.33
20424;BME280;10371;49.042;8.002;2023-05-17T05:22:40;100571.25;;;8.98;91.67
20424;BME280;10371;49.042;8.002;2023-05-17T05:23:40;100570.31;;;8.99;92.09
20424;BME280;10371;49.042;8.002;2023-05-17T05:24:40;100578.03;;;9.00;92.27
20424;BME280;10371;49.042;8.002;2023-05-17T05:25:42;100576.91;;;9.04;92.21
20424;BME280;10371;49.042;8.002;2023-05-17T05:26:42;100579.59;;;9.03;92.33
20424;BME280;10371;49.042;8.002;2023-05-17T05:27:43;100582.91;;;9.05;92.24
20424;BME280;10371;49.042;8.002;2023-05-17T05:28:44;100579.75;;;9.00;92.13
20424;BME280;10371;49.042;8.002;2023-05-17T05:29:45;100582.19;;;9.03;92.33
20424;BME280;10371;49.042;8.002;2023-05-17T05:30:45;100586.34;;;9.05;92.41
20424;BME280;10371;49.042;8.002;2023-05-17T05:31:45;100583.09;;;9.02;92.21
20424;BME280;10371;49.042;8.002;2023-05-17T05:32:49;100592.91;;;9.11;92.12